Terminal Aerodrome Forecast
Issued by NWS

Home | Current Version | Previous Version | Text Only | Print | Product List | Glossary On
Versions: 1 2 3 4 5 6 7 8 9 10 11 12 13 14 15 16 17 18 19 20 21 22 23 24 25 26 27 28 29 30 31 32 33 34 35 36 37 38 39 40 41 42 43 44 45 46 47 48 49 50
000
FTUS45 KBOU 050219 AAA
TAFBJC
TAF AMD
KBJC 050219Z 0502/0524 02008KT P6SM VCSH SCT006 BKN012 OVC025
      TEMPO 0502/0505 4SM -RA BR BKN005
     FM050500 10006KT 4SM -RA BR BKN012 OVC025
     FM051500 07006KT P6SM VCSH BKN015 OVC030
     FM051900 09007KT 5SM -SHRA BKN015 OVC030
      TEMPO 0520/0524 3SM -TSRA OVC012CB=

USA.gov is the U.S. government's official web portal to all federal, state and local government web resources and services.